So this is Christmas and what have we here?

ESSA 251320Z 19004KT 6000 BR SCT009 BKN010 03/03 Q1017

I.e  no flying with the cousins!

Advertisements

One Response to So this is Christmas and what have we here?

  1. Leif says:

    Voj, Voj, grabben så kom den lilla blänkaren uppe till höger på boggen, tack för det.

    Nu kan jag sitta i Kina och hålla styr på din utveklings nivå, kul, kul.

    Ses

Leave a Reply

Fill in your details below or click an icon to log in:

WordPress.com Logo

You are commenting using your WordPress.com account. Log Out / Change )

Twitter picture

You are commenting using your Twitter account. Log Out / Change )

Facebook photo

You are commenting using your Facebook account. Log Out / Change )

Google+ photo

You are commenting using your Google+ account. Log Out / Change )

Connecting to %s

%d bloggers like this: